Time;durP1;ratioP1;P1;durP2;ratioP2;P2;SDS_P1;SDS_P2;PMS_P1;PMS_P2;Temp;Humidity;BMP_temperature;BMP_pressure;BME280_temperature;BME280_humidity;BME280_pressure;Samples;Min_cycle;Max_cycle;Signal;HPM_P1;HPM_P2
2022/09/22 00:00:35;;;;;;;8.60;5.47;;;8.70;99.90;;;;;;5039610;28;20221;-59
2022/09/22 00:03:01;;;;;;;7.20;5.07;;;8.70;99.90;;;;;;5041184;28;20124;-61
2022/09/22 00:05:26;;;;;;;9.43;5.50;;;8.70;99.90;;;;;;5036199;28;20159;-61
2022/09/22 00:07:52;;;;;;;6.80;5.32;;;8.70;99.90;;;;;;5036073;28;20032;-60
2022/09/22 00:10:20;;;;;;;8.35;5.18;;;8.60;99.90;;;;;;5038783;28;20036;-60
2022/09/22 00:12:46;;;;;;;6.60;5.10;;;8.60;99.90;;;;;;5042196;28;20196;-60
2022/09/22 00:15:12;;;;;;;7.60;5.15;;;8.60;99.90;;;;;;5036966;28;20033;-60
2022/09/22 00:17:37;;;;;;;8.40;4.95;;;8.60;99.90;;;;;;5039360;28;20044;-59
2022/09/22 00:20:03;;;;;;;7.50;4.97;;;8.60;99.90;;;;;;5042984;28;20122;-58
2022/09/22 00:22:29;;;;;;;8.35;5.05;;;8.60;99.90;;;;;;5045308;28;20104;-59
2022/09/22 00:24:55;;;;;;;8.25;5.10;;;8.50;99.90;;;;;;5041607;28;20040;-60
2022/09/22 00:27:23;;;;;;;8.13;4.80;;;8.50;99.90;;;;;;5039980;28;21649;-59
2022/09/22 00:29:50;;;;;;;9.35;4.93;;;8.50;99.90;;;;;;5043054;28;20373;-61
2022/09/22 00:32:17;;;;;;;9.07;5.10;;;8.40;99.90;;;;;;5039953;28;20036;-59
2022/09/22 00:34:43;;;;;;;8.40;4.57;;;8.40;99.90;;;;;;5044641;28;20139;-59
2022/09/22 00:37:09;;;;;;;10.98;5.03;;;8.40;99.90;;;;;;5040126;28;20045;-59
2022/09/22 00:39:35;;;;;;;8.95;5.07;;;8.40;99.90;;;;;;5043669;28;21033;-61
2022/09/22 00:42:00;;;;;;;9.93;5.70;;;8.40;99.90;;;;;;5044436;28;20075;-61
2022/09/22 00:44:32;;;;;;;8.25;5.63;;;8.40;99.90;;;;;;5043270;28;20116;-59
2022/09/22 00:47:19;;;;;;;6.68;4.90;;;8.40;99.90;;;;;;5038317;28;20051;-58
2022/09/22 00:50:06;;;;;;;8.93;5.68;;;8.40;99.90;;;;;;5043801;28;20037;-59
2022/09/22 00:52:37;;;;;;;6.65;5.20;;;8.40;99.90;;;;;;5046209;28;20028;-60
2022/09/22 00:55:10;;;;;;;7.47;5.20;;;8.30;99.90;;;;;;5045298;28;20157;-61
2022/09/22 00:57:38;;;;;;;8.20;5.03;;;8.30;99.90;;;;;;5040147;28;20130;-60
2022/09/22 01:00:06;;;;;;;7.00;5.30;;;8.20;99.90;;;;;;5037420;28;20770;-61
2022/09/22 01:02:32;;;;;;;6.15;4.97;;;8.20;99.90;;;;;;5044396;28;20037;-60
2022/09/22 01:04:57;;;;;;;8.10;4.97;;;8.20;99.90;;;;;;5043274;28;20040;-60
2022/09/22 01:07:27;;;;;;;6.32;4.82;;;8.20;99.90;;;;;;5042720;28;20033;-60
2022/09/22 01:09:54;;;;;;;7.95;4.97;;;8.20;99.90;;;;;;5037416;28;20075;-60
2022/09/22 01:12:22;;;;;;;11.95;5.90;;;8.20;99.90;;;;;;5041220;28;20048;-60
2022/09/22 01:15:09;;;;;;;9.65;5.45;;;8.10;99.90;;;;;;5041888;28;20033;-60
2022/09/22 01:17:45;;;;;;;7.72;5.20;;;8.20;99.90;;;;;;5039365;28;20899;-59
2022/09/22 01:20:42;;;;;;;7.07;4.90;;;8.10;99.90;;;;;;5046229;28;20167;-60
2022/09/22 01:23:33;;;;;;;8.18;5.00;;;8.10;99.90;;;;;;5043185;28;20075;-59
2022/09/22 01:26:26;;;;;;;6.28;4.63;;;8.10;99.90;;;;;;5042766;28;20039;-59
2022/09/22 01:29:10;;;;;;;5.87;4.53;;;8.20;99.90;;;;;;5045609;28;20121;-59
2022/09/22 01:31:38;;;;;;;7.47;5.10;;;8.00;99.90;;;;;;5045386;28;20286;-60
2022/09/22 01:34:37;;;;;;;9.25;5.38;;;7.90;99.90;;;;;;5041501;28;20036;-60
2022/09/22 01:37:22;;;;;;;6.68;5.05;;;7.90;99.90;;;;;;5039003;28;20037;-61
2022/09/22 01:39:56;;;;;;;12.25;6.95;;;7.90;99.90;;;;;;5040833;28;20665;-58
2022/09/22 01:42:47;;;;;;;10.75;6.30;;;7.80;99.90;;;;;;5043193;28;20500;-60
2022/09/22 01:45:16;;;;;;;8.25;5.50;;;7.90;99.90;;;;;;5038510;28;20110;-60
2022/09/22 01:47:51;;;;;;;8.93;5.28;;;7.80;99.90;;;;;;5038517;28;20033;-60
2022/09/22 01:50:25;;;;;;;6.35;4.75;;;7.80;99.90;;;;;;5044845;28;20041;-60
2022/09/22 01:52:54;;;;;;;7.13;5.05;;;7.80;99.90;;;;;;5043661;28;20499;-60
2022/09/22 01:55:26;;;;;;;7.13;5.13;;;7.80;99.90;;;;;;5040351;28;20037;-59
2022/09/22 01:58:17;;;;;;;6.75;5.47;;;7.80;99.90;;;;;;5046187;28;20520;-60
2022/09/22 02:01:19;;;;;;;6.05;5.10;;;7.70;99.90;;;;;;5045971;28;20744;-60
2022/09/22 02:03:55;;;;;;;7.28;5.25;;;7.70;99.90;;;;;;5042802;28;20322;-58
2022/09/22 02:06:32;;;;;;;7.93;5.40;;;7.70;99.90;;;;;;5042631;28;20091;-59
2022/09/22 02:09:15;;;;;;;10.60;5.13;;;7.70;99.90;;;;;;5038991;28;20120;-61
2022/09/22 02:11:41;;;;;;;10.23;5.15;;;7.70;99.90;;;;;;5036474;28;20464;-60
2022/09/22 02:14:07;;;;;;;7.75;5.57;;;7.70;99.90;;;;;;5040208;28;20071;-60
2022/09/22 02:16:34;;;;;;;8.25;5.93;;;7.70;99.90;;;;;;5042461;28;20499;-60
2022/09/22 02:19:19;;;;;;;8.82;5.72;;;7.70;99.90;;;;;;5041014;28;20122;-60
2022/09/22 02:21:46;;;;;;;7.22;5.47;;;7.60;99.90;;;;;;5042750;28;20029;-60
2022/09/22 02:24:29;;;;;;;9.30;5.82;;;7.60;99.90;;;;;;5040045;28;20147;-59
2022/09/22 02:26:57;;;;;;;7.65;5.53;;;7.60;99.90;;;;;;5042267;28;20068;-60
2022/09/22 02:29:26;;;;;;;10.05;5.80;;;7.60;99.90;;;;;;5044300;28;20046;-59
2022/09/22 02:31:52;;;;;;;7.93;5.53;;;7.60;99.90;;;;;;5042542;28;20078;-60
2022/09/22 02:34:18;;;;;;;7.80;5.10;;;7.60;99.90;;;;;;5046047;28;20546;-59
2022/09/22 02:37:03;;;;;;;8.50;5.55;;;7.60;99.90;;;;;;5043735;28;20047;-61
2022/09/22 02:39:47;;;;;;;8.05;5.40;;;7.60;99.90;;;;;;5039121;28;20494;-60
2022/09/22 02:42:22;;;;;;;7.43;5.00;;;7.50;99.90;;;;;;5043303;28;20040;-60
2022/09/22 02:45:32;;;;;;;7.78;5.25;;;7.50;99.90;;;;;;5037279;28;20040;-61
2022/09/22 02:48:03;;;;;;;8.07;5.07;;;7.50;99.90;;;;;;5039562;28;20061;-60
2022/09/22 02:50:30;;;;;;;9.05;5.43;;;7.40;99.90;;;;;;5042095;28;20029;-60
2022/09/22 02:53:00;;;;;;;6.28;4.88;;;7.40;99.90;;;;;;5041277;28;20037;-60
2022/09/22 02:55:26;;;;;;;9.07;5.63;;;7.30;99.90;;;;;;5037672;28;20033;-60
2022/09/22 02:57:51;;;;;;;8.38;5.00;;;7.30;99.90;;;;;;5041457;28;20405;-60
2022/09/22 03:00:17;;;;;;;9.80;5.60;;;7.30;99.90;;;;;;5042629;28;20120;-60
2022/09/22 03:02:43;;;;;;;7.50;5.65;;;7.40;99.90;;;;;;5043538;28;20040;-60
2022/09/22 03:05:08;;;;;;;10.93;5.63;;;7.30;99.90;;;;;;5041596;28;20040;-60
2022/09/22 03:07:34;;;;;;;9.05;5.85;;;7.30;99.90;;;;;;5040802;28;20477;-60
2022/09/22 03:09:59;;;;;;;5.95;4.97;;;7.30;99.90;;;;;;5042020;28;20048;-60
2022/09/22 03:12:25;;;;;;;6.75;4.75;;;7.30;99.90;;;;;;5041686;28;20026;-60
2022/09/22 03:14:50;;;;;;;7.53;4.80;;;7.30;99.90;;;;;;5041733;28;20489;-60
2022/09/22 03:17:16;;;;;;;8.95;4.80;;;7.20;99.90;;;;;;5040840;28;20075;-60
2022/09/22 03:19:42;;;;;;;8.27;5.03;;;7.20;99.90;;;;;;5041864;28;20037;-60
2022/09/22 03:22:07;;;;;;;9.52;5.07;;;7.20;99.90;;;;;;5043681;28;20540;-59
2022/09/22 03:24:33;;;;;;;6.93;4.93;;;7.20;99.90;;;;;;5043474;28;20441;-60
2022/09/22 03:26:58;;;;;;;6.55;4.80;;;7.10;99.90;;;;;;5043210;28;20029;-60
2022/09/22 03:29:24;;;;;;;6.82;4.55;;;7.10;99.90;;;;;;5039406;28;20044;-60
2022/09/22 03:31:49;;;;;;;8.38;5.25;;;7.30;99.90;;;;;;5040095;28;20037;-60
2022/09/22 03:34:15;;;;;;;7.93;5.15;;;7.30;99.90;;;;;;5043177;28;20048;-59
2022/09/22 03:36:41;;;;;;;6.75;5.25;;;7.30;99.90;;;;;;5044410;28;20037;-61
2022/09/22 03:39:06;;;;;;;8.07;4.60;;;7.20;99.90;;;;;;5043047;28;20037;-60
2022/09/22 03:41:32;;;;;;;9.80;5.40;;;7.20;99.90;;;;;;5044682;28;20469;-60
2022/09/22 03:43:58;;;;;;;9.30;5.40;;;7.10;99.90;;;;;;5042299;28;20040;-60
2022/09/22 03:46:23;;;;;;;10.52;5.40;;;7.00;99.90;;;;;;5038811;28;20037;-60
2022/09/22 03:48:50;;;;;;;6.70;5.22;;;7.10;99.90;;;;;;5044880;28;20029;-61
2022/09/22 03:51:16;;;;;;;7.60;5.03;;;7.00;99.90;;;;;;5039148;28;20029;-59
2022/09/22 03:53:41;;;;;;;8.90;5.07;;;7.00;99.90;;;;;;5037292;28;20037;-60
2022/09/22 03:56:10;;;;;;;8.48;5.15;;;7.00;99.90;;;;;;5044349;28;20690;-60
2022/09/22 03:58:37;;;;;;;8.98;5.22;;;7.10;99.90;;;;;;5052185;28;20102;-60
2022/09/22 04:01:03;;;;;;;9.02;5.07;;;7.00;99.90;;;;;;5045775;28;20041;-60
2022/09/22 04:03:29;;;;;;;8.00;5.35;;;6.90;99.90;;;;;;5043836;28;20465;-61
2022/09/22 04:05:55;;;;;;;8.82;5.00;;;6.90;99.90;;;;;;5050904;28;20040;-60
2022/09/22 04:08:22;;;;;;;8.35;4.97;;;6.90;99.90;;;;;;5046394;28;20051;-59
2022/09/22 04:10:47;;;;;;;8.40;4.85;;;6.90;99.90;;;;;;5042819;28;20045;-60
2022/09/22 04:13:13;;;;;;;7.95;5.10;;;6.90;99.90;;;;;;5048648;28;20040;-60
2022/09/22 04:15:40;;;;;;;9.50;5.10;;;6.90;99.90;;;;;;5041711;28;20037;-60
2022/09/22 04:18:05;;;;;;;8.93;5.40;;;6.90;99.90;;;;;;5041392;28;20045;-60
2022/09/22 04:20:31;;;;;;;10.20;5.25;;;6.90;99.90;;;;;;5041987;28;20326;-60
2022/09/22 04:22:57;;;;;;;8.48;4.97;;;6.90;99.90;;;;;;5042272;28;20151;-60
2022/09/22 04:25:22;;;;;;;7.13;5.10;;;6.90;99.90;;;;;;5042713;28;20627;-60
2022/09/22 04:27:48;;;;;;;11.23;5.10;;;6.90;99.90;;;;;;5042670;28;20082;-60
2022/09/22 04:30:14;;;;;;;9.40;5.05;;;6.90;99.90;;;;;;5040947;28;20072;-60
2022/09/22 04:32:40;;;;;;;6.95;5.00;;;7.00;99.90;;;;;;5044849;28;20120;-60
2022/09/22 04:35:06;;;;;;;9.75;5.30;;;6.90;99.90;;;;;;5043078;28;20029;-60
2022/09/22 04:37:32;;;;;;;6.88;5.47;;;6.90;99.90;;;;;;5043457;28;20049;-60
2022/09/22 04:39:58;;;;;;;8.30;5.47;;;6.90;99.90;;;;;;5039285;28;20097;-60
2022/09/22 04:42:25;;;;;;;6.25;4.90;;;6.90;99.90;;;;;;5039730;28;20383;-60
2022/09/22 04:44:50;;;;;;;8.93;5.05;;;7.00;99.90;;;;;;5040282;28;20056;-61
2022/09/22 04:47:16;;;;;;;8.88;5.13;;;6.90;99.90;;;;;;5040102;28;20045;-60
2022/09/22 04:49:42;;;;;;;7.30;4.43;;;6.90;99.90;;;;;;5042270;28;20032;-60
2022/09/22 04:52:08;;;;;;;10.75;5.35;;;6.90;99.90;;;;;;5041354;28;20029;-58
2022/09/22 04:54:34;;;;;;;8.30;4.53;;;6.90;99.90;;;;;;5038911;28;20041;-61
2022/09/22 04:57:00;;;;;;;7.15;5.28;;;6.90;99.90;;;;;;5041874;28;20365;-59
2022/09/22 04:59:25;;;;;;;8.35;5.38;;;6.90;99.90;;;;;;5040335;28;20667;-61
2022/09/22 05:01:51;;;;;;;8.27;5.20;;;6.80;99.90;;;;;;5043856;28;20033;-60
2022/09/22 05:04:17;;;;;;;9.20;5.53;;;6.80;99.90;;;;;;5023579;28;20772;-60
2022/09/22 05:06:43;;;;;;;8.70;5.05;;;6.80;99.90;;;;;;5044528;28;20029;-59
2022/09/22 05:09:08;;;;;;;11.63;5.32;;;6.80;99.90;;;;;;5040917;28;20041;-59
2022/09/22 05:11:34;;;;;;;8.68;5.20;;;6.80;99.90;;;;;;5025049;28;20672;-59
2022/09/22 05:14:01;;;;;;;12.32;5.38;;;6.80;99.90;;;;;;5040550;28;20025;-59
2022/09/22 05:16:26;;;;;;;8.43;4.82;;;6.70;99.90;;;;;;5042680;28;20041;-62
2022/09/22 05:18:52;;;;;;;9.18;5.43;;;6.80;99.90;;;;;;5040706;28;20155;-60
2022/09/22 05:21:18;;;;;;;14.60;9.95;;;6.90;99.90;;;;;;5043688;28;20051;-60
2022/09/22 05:23:44;;;;;;;12.60;6.90;;;6.90;99.90;;;;;;5040965;28;20045;-60
2022/09/22 05:26:10;;;;;;;15.82;7.45;;;6.80;99.90;;;;;;5032167;28;20040;-60
2022/09/22 05:28:36;;;;;;;9.77;6.22;;;6.90;99.90;;;;;;5043959;28;20033;-58
2022/09/22 05:31:02;;;;;;;10.00;5.22;;;6.90;99.90;;;;;;5038704;28;20108;-58
2022/09/22 05:33:28;;;;;;;6.95;4.80;;;6.90;99.90;;;;;;5040265;28;20044;-59
2022/09/22 05:35:54;;;;;;;10.68;4.85;;;6.90;99.90;;;;;;5043411;28;20036;-58
2022/09/22 05:38:19;;;;;;;8.93;5.35;;;6.90;99.90;;;;;;5034093;28;20675;-60
2022/09/22 05:40:48;;;;;;;10.20;5.80;;;6.90;99.90;;;;;;5039519;28;20044;-60
2022/09/22 05:43:14;;;;;;;10.15;5.28;;;7.00;99.90;;;;;;5046163;28;20120;-60
2022/09/22 05:45:41;;;;;;;11.50;5.30;;;7.00;99.90;;;;;;5036093;28;20037;-60
2022/09/22 05:48:06;;;;;;;7.53;5.15;;;7.10;99.90;;;;;;5040726;28;20049;-60
2022/09/22 05:50:32;;;;;;;8.50;5.15;;;7.00;99.90;;;;;;5041531;28;20041;-60
2022/09/22 05:53:06;;;;;;;7.95;5.13;;;7.10;99.90;;;;;;5045809;28;20039;-60
2022/09/22 05:55:32;;;;;;;8.07;5.40;;;7.30;99.90;;;;;;5041114;28;20072;-60
2022/09/22 05:57:58;;;;;;;10.20;5.32;;;7.40;99.90;;;;;;5043530;28;20067;-60
2022/09/22 06:00:25;;;;;;;11.88;5.45;;;7.40;99.90;;;;;;5034795;28;20059;-60
2022/09/22 06:02:51;;;;;;;11.70;6.10;;;7.50;99.90;;;;;;5039359;28;20051;-60
2022/09/22 06:05:16;;;;;;;8.73;5.18;;;7.60;99.90;;;;;;5044181;28;20138;-60
2022/09/22 06:07:42;;;;;;;7.97;5.28;;;7.60;99.90;;;;;;5047820;28;20041;-60
2022/09/22 06:10:10;;;;;;;12.05;6.47;;;7.70;99.90;;;;;;5041448;28;20148;-59
2022/09/22 06:12:36;;;;;;;13.85;6.07;;;7.70;99.90;;;;;;5040457;28;20087;-59
2022/09/22 06:15:03;;;;;;;23.35;8.50;;;7.80;99.90;;;;;;5039097;28;20044;-60
2022/09/22 06:17:29;;;;;;;12.80;7.32;;;8.10;99.90;;;;;;5040279;28;20083;-60
2022/09/22 06:19:54;;;;;;;13.10;7.50;;;8.10;99.90;;;;;;5034191;28;20341;-60
2022/09/22 06:22:22;;;;;;;10.35;6.63;;;8.10;99.90;;;;;;5040870;28;20556;-60
2022/09/22 06:24:48;;;;;;;14.45;7.25;;;8.20;99.90;;;;;;5039312;28;20326;-60
2022/09/22 06:27:15;;;;;;;14.40;7.32;;;8.20;99.90;;;;;;5042466;28;20048;-60
2022/09/22 06:29:41;;;;;;;13.82;7.28;;;8.30;99.90;;;;;;5044862;28;20117;-60
2022/09/22 06:32:07;;;;;;;12.65;7.63;;;8.40;99.90;;;;;;5041425;28;20051;-60
2022/09/22 06:34:36;;;;;;;15.13;8.77;;;8.50;99.90;;;;;;5043236;28;20355;-58
2022/09/22 06:37:05;;;;;;;11.88;7.40;;;8.60;99.90;;;;;;5042742;28;20091;-58
2022/09/22 06:39:30;;;;;;;13.25;8.20;;;8.60;99.90;;;;;;5036295;28;20411;-58
2022/09/22 06:41:56;;;;;;;17.10;8.00;;;8.80;99.90;;;;;;5036424;28;20025;-57
2022/09/22 06:44:21;;;;;;;14.27;8.98;;;8.80;99.90;;;;;;5035670;28;20069;-58
2022/09/22 06:46:47;;;;;;;13.73;8.50;;;9.00;99.90;;;;;;5035715;28;20036;-58
2022/09/22 06:49:13;;;;;;;15.45;8.45;;;9.10;99.90;;;;;;5040762;28;20168;-58
2022/09/22 06:51:38;;;;;;;105.57;74.82;;;9.10;99.90;;;;;;5041139;28;20047;-55
2022/09/22 06:54:05;;;;;;;27.38;17.42;;;9.30;99.90;;;;;;5044121;28;20045;-57
2022/09/22 06:56:36;;;;;;;21.48;13.00;;;9.30;99.90;;;;;;5039487;28;20056;-57
2022/09/22 06:59:06;;;;;;;14.18;8.70;;;9.40;99.90;;;;;;5041482;28;20068;-58
2022/09/22 07:01:31;;;;;;;16.73;8.80;;;9.50;99.90;;;;;;5036370;28;20041;-58
2022/09/22 07:03:57;;;;;;;13.77;8.60;;;9.60;99.90;;;;;;5040055;28;20033;-58
2022/09/22 07:06:23;;;;;;;16.40;8.13;;;9.60;99.90;;;;;;5037016;28;20040;-59
2022/09/22 07:08:49;;;;;;;14.40;7.97;;;9.70;99.90;;;;;;5042297;28;20123;-58
2022/09/22 07:11:18;;;;;;;14.98;8.30;;;9.80;99.90;;;;;;5042022;28;20504;-57
2022/09/22 07:13:45;;;;;;;18.88;8.73;;;9.90;99.90;;;;;;5038295;28;20036;-59
2022/09/22 07:16:18;;;;;;;16.27;8.90;;;10.10;99.90;;;;;;5038990;28;20041;-58
2022/09/22 07:18:48;;;;;;;13.48;8.00;;;10.30;99.90;;;;;;5039753;28;20052;-59
2022/09/22 07:21:19;;;;;;;13.77;7.78;;;10.40;99.90;;;;;;5038699;28;20044;-58
2022/09/22 07:23:46;;;;;;;11.68;7.57;;;10.50;99.90;;;;;;5033708;28;20056;-59
2022/09/22 07:26:14;;;;;;;19.45;8.02;;;10.50;99.90;;;;;;5041213;28;20132;-58
2022/09/22 07:28:40;;;;;;;13.88;7.25;;;10.50;99.90;;;;;;5042481;28;20484;-59
2022/09/22 07:31:12;;;;;;;14.15;6.63;;;10.60;99.90;;;;;;5043300;28;20108;-58
2022/09/22 07:33:41;;;;;;;12.02;6.80;;;10.70;99.90;;;;;;5042648;28;20112;-58
2022/09/22 07:36:13;;;;;;;11.25;6.03;;;10.80;99.90;;;;;;5045497;28;20033;-59
2022/09/22 07:38:40;;;;;;;9.55;5.78;;;10.90;99.90;;;;;;5042692;28;20037;-59
2022/09/22 07:41:11;;;;;;;7.80;5.10;;;11.00;99.90;;;;;;5040147;28;20056;-59
2022/09/22 07:43:38;;;;;;;9.77;5.43;;;11.00;99.90;;;;;;5045608;28;20645;-57
2022/09/22 07:46:04;;;;;;;14.18;5.32;;;11.20;99.90;;;;;;5042158;28;20038;-58
2022/09/22 07:48:36;;;;;;;8.50;4.90;;;11.20;99.90;;;;;;5044332;28;20033;-58
2022/09/22 07:51:18;;;;;;;9.85;5.53;;;11.30;99.90;;;;;;5040904;28;20465;-58
2022/09/22 07:54:06;;;;;;;12.13;5.13;;;11.40;99.90;;;;;;5042225;28;20033;-58
2022/09/22 07:56:37;;;;;;;9.05;5.00;;;11.50;99.90;;;;;;5044622;28;20041;-58
2022/09/22 07:59:04;;;;;;;10.20;4.82;;;11.60;99.90;;;;;;5046498;28;20166;-60
2022/09/22 08:01:33;;;;;;;7.82;4.90;;;11.70;99.90;;;;;;5045744;28;20037;-57
2022/09/22 08:03:59;;;;;;;8.70;5.45;;;11.70;99.90;;;;;;5040461;28;20045;-59
2022/09/22 08:06:26;;;;;;;9.15;5.20;;;11.80;99.90;;;;;;5052221;28;20591;-59
2022/09/22 08:08:55;;;;;;;9.38;5.18;;;11.80;99.90;;;;;;5048102;28;20047;-58
2022/09/22 08:11:23;;;;;;;7.07;5.03;;;11.80;99.90;;;;;;5045151;28;20146;-60
2022/09/22 08:13:52;;;;;;;8.90;5.30;;;11.90;99.90;;;;;;5047106;28;20029;-58
2022/09/22 08:16:19;;;;;;;10.77;4.80;;;12.50;99.90;;;;;;5050584;28;20514;-58
2022/09/22 08:18:49;;;;;;;9.60;4.85;;;12.10;99.90;;;;;;5042504;28;20044;-58
2022/09/22 08:21:18;;;;;;;11.30;5.38;;;12.20;99.90;;;;;;5047173;28;20112;-58
2022/09/22 08:23:44;;;;;;;11.27;5.07;;;12.30;99.90;;;;;;5046838;28;20021;-59
2022/09/22 08:26:10;;;;;;;10.93;5.10;;;12.40;99.90;;;;;;5042754;28;20036;-58
2022/09/22 08:28:36;;;;;;;10.48;4.95;;;12.40;99.90;;;;;;5044860;28;20338;-59
2022/09/22 08:31:02;;;;;;;8.77;4.80;;;12.50;99.90;;;;;;5043584;28;20110;-58
2022/09/22 08:33:30;;;;;;;10.18;4.57;;;12.50;99.90;;;;;;5044799;28;20036;-58
2022/09/22 08:35:58;;;;;;;10.80;5.32;;;12.60;99.90;;;;;;5045268;28;20539;-58
2022/09/22 08:38:27;;;;;;;10.43;4.80;;;12.60;99.90;;;;;;5044635;28;20056;-58
2022/09/22 08:41:11;;;;;;;12.32;5.05;;;12.70;99.90;;;;;;5044681;28;20029;-59
2022/09/22 08:43:49;;;;;;;10.27;5.47;;;12.90;99.90;;;;;;5040744;28;20033;-59
2022/09/22 08:46:14;;;;;;;10.07;4.38;;;12.90;99.90;;;;;;5037480;28;20569;-58
2022/09/22 08:51:51;;;;;;;12.45;5.75;;;13.00;99.90;;;;;;5044084;28;20035;-58
2022/09/22 08:54:30;;;;;;;9.95;6.03;;;13.10;99.90;;;;;;5043547;28;20053;-59
2022/09/22 08:57:21;;;;;;;8.73;5.28;;;13.10;99.90;;;;;;5048331;28;20377;-60
2022/09/22 09:00:04;;;;;;;9.70;5.10;;;13.20;99.90;;;;;;5048578;28;20073;-58
2022/09/22 09:02:51;;;;;;;;;;;13.30;99.90;;;;;;5046978;28;20266;-60
2022/09/22 09:05:41;;;;;;;11.65;5.45;;;13.40;99.90;;;;;;5040976;28;19913;-59
2022/09/22 09:08:27;;;;;;;10.40;5.93;;;13.40;99.90;;;;;;5039572;28;20439;-60
2022/09/22 09:10:55;;;;;;;8.75;4.78;;;13.60;99.90;;;;;;5043514;28;20106;-58
2022/09/22 09:13:58;;;;;;;9.88;5.00;;;13.60;99.90;;;;;;5040877;28;20064;-59
2022/09/22 09:16:45;;;;;;;7.63;5.10;;;13.60;99.90;;;;;;5040822;28;20041;-59
2022/09/22 09:19:32;;;;;;;13.73;4.80;;;13.70;99.90;;;;;;5042845;28;20436;-60
2022/09/22 09:22:03;;;;;;;10.88;5.05;;;13.80;99.90;;;;;;5046416;28;20117;-59
2022/09/22 09:24:38;;;;;;;8.35;4.55;;;13.90;99.90;;;;;;5041680;28;20123;-59
2022/09/22 09:27:10;;;;;;;7.47;4.45;;;14.10;99.90;;;;;;5039357;28;20104;-59
2022/09/22 09:29:43;;;;;;;9.50;5.03;;;14.20;99.90;;;;;;5042688;28;20138;-60
2022/09/22 09:32:42;;;;;;;12.05;4.72;;;14.30;99.90;;;;;;5044912;28;20040;-58
2022/09/22 09:35:33;;;;;;;10.63;4.93;;;14.20;99.90;;;;;;5040118;28;20033;-60
2022/09/22 09:38:01;;;;;;;7.55;4.63;;;14.30;99.90;;;;;;5036300;28;20400;-58
2022/09/22 09:40:27;;;;;;;10.85;4.65;;;14.30;99.90;;;;;;5041909;28;20125;-59
2022/09/22 09:43:02;;;;;;;11.77;3.78;;;14.50;99.90;;;;;;5042680;28;20044;-60
2022/09/22 09:45:50;;;;;;;7.40;3.95;;;14.60;99.90;;;;;;5043254;28;20247;-60
2022/09/22 09:48:26;;;;;;;7.03;3.50;;;14.60;99.90;;;;;;5041753;28;20029;-60
2022/09/22 09:50:52;;;;;;;8.20;4.30;;;14.70;99.90;;;;;;5045085;28;20353;-60
2022/09/22 09:53:41;;;;;;;8.70;3.83;;;14.70;99.90;;;;;;5042814;28;20086;-59
2022/09/22 09:56:28;;;;;;;5.68;3.05;;;14.80;99.90;;;;;;5043341;28;20314;-60
2022/09/22 10:01:49;;;;;;;9.15;2.90;;;14.90;99.90;;;;;;5042155;28;20040;-59
2022/09/22 10:04:18;;;;;;;5.07;2.45;;;15.10;99.90;;;;;;5045167;28;20040;-59
2022/09/22 10:06:45;;;;;;;4.90;2.10;;;15.10;99.90;;;;;;5042101;28;20037;-60
2022/09/22 10:09:12;;;;;;;3.05;1.70;;;15.20;99.90;;;;;;5039743;28;20560;-60
2022/09/22 10:11:37;;;;;;;6.20;2.05;;;15.30;99.90;;;;;;5041926;28;20142;-60
2022/09/22 10:14:03;;;;;;;4.93;1.85;;;15.30;99.90;;;;;;5042454;28;20483;-60
2022/09/22 10:16:30;;;;;;;4.47;1.90;;;15.40;99.90;;;;;;5042130;28;20143;-59
2022/09/22 10:19:03;;;;;;;3.92;1.90;;;15.40;99.90;;;;;;5044726;28;20086;-60
2022/09/22 10:21:29;;;;;;;6.15;1.63;;;15.50;99.90;;;;;;5041851;28;20025;-60
2022/09/22 10:23:57;;;;;;;2.83;1.40;;;15.50;99.90;;;;;;5045415;28;20778;-59
2022/09/22 10:26:29;;;;;;;4.88;1.92;;;15.40;99.90;;;;;;5037693;28;20067;-59
2022/09/22 10:29:17;;;;;;;2.63;1.60;;;15.60;99.90;;;;;;5046513;28;20514;-60
2022/09/22 10:32:04;;;;;;;2.83;1.58;;;15.70;99.90;;;;;;5042484;28;20052;-59
2022/09/22 10:34:35;;;;;;;2.80;1.63;;;15.70;99.90;;;;;;5037067;28;20503;-59
2022/09/22 10:37:07;;;;;;;4.18;2.00;;;15.70;99.90;;;;;;5047392;28;20063;-60
2022/09/22 10:39:42;;;;;;;3.67;1.63;;;15.60;99.90;;;;;;5043231;28;20063;-59
2022/09/22 10:42:27;;;;;;;6.13;1.77;;;15.60;99.90;;;;;;5042073;28;20052;-59
2022/09/22 10:44:57;;;;;;;8.40;1.63;;;15.60;99.90;;;;;;5045960;28;20089;-60
2022/09/22 10:47:31;;;;;;;4.25;1.50;;;15.70;99.90;;;;;;5045925;28;20566;-60
2022/09/22 10:50:27;;;;;;;3.50;1.63;;;15.80;99.90;;;;;;5047201;28;20024;-61
2022/09/22 10:53:26;;;;;;;4.68;1.38;;;15.90;99.90;;;;;;5043940;28;20044;-58
2022/09/22 10:56:18;;;;;;;3.85;1.50;;;15.90;99.90;;;;;;5041166;28;20029;-60
2022/09/22 10:58:55;;;;;;;1.83;1.27;;;15.90;99.90;;;;;;5038725;28;20033;-60
2022/09/22 11:01:27;;;;;;;3.50;1.50;;;15.90;99.90;;;;;;5045555;28;20451;-60
2022/09/22 11:04:13;;;;;;;4.20;1.73;;;15.80;99.90;;;;;;5045750;28;20090;-60
2022/09/22 11:13:25;;;;;;;3.28;1.35;;;15.90;99.90;;;;;;5039522;28;20454;-60
2022/09/22 11:16:00;;;;;;;2.33;1.60;;;16.10;99.90;;;;;;5041178;28;20461;-59
2022/09/22 11:18:37;;;;;;;2.28;1.55;;;;;;;;;;5037287;28;20691;-60
2022/09/22 11:21:31;;;;;;;2.45;1.45;;;16.20;99.90;;;;;;5040237;28;20037;-61
2022/09/22 11:24:13;;;;;;;2.65;1.67;;;16.20;99.90;;;;;;5040571;28;20059;-60
2022/09/22 11:26:54;;;;;;;2.75;1.52;;;16.30;99.90;;;;;;5040119;28;20029;-60
2022/09/22 11:30:03;;;;;;;4.03;1.50;;;16.30;99.90;;;;;;5040811;28;20467;-61
2022/09/22 11:33:08;;;;;;;2.25;1.20;;;16.30;99.90;;;;;;5042969;28;20452;-60
2022/09/22 11:35:48;;;;;;;3.13;1.20;;;16.40;99.90;;;;;;5039289;28;20412;-60
2022/09/22 11:38:22;;;;;;;4.72;1.40;;;16.30;99.90;;;;;;5041289;28;20658;-60
2022/09/22 11:41:06;;;;;;;2.25;1.13;;;16.40;99.90;;;;;;5036861;28;20033;-61
2022/09/22 11:43:50;;;;;;;3.28;1.42;;;16.40;99.90;;;;;;5041447;28;20342;-61
2022/09/22 11:46:21;;;;;;;3.33;1.40;;;16.50;99.90;;;;;;5043390;28;20091;-58
2022/09/22 11:49:10;;;;;;;2.95;1.33;;;16.60;99.90;;;;;;5041220;28;20033;-59
2022/09/22 11:52:04;;;;;;;2.63;1.10;;;16.60;99.90;;;;;;5037730;28;20060;-60
2022/09/22 11:55:07;;;;;;;2.38;1.20;;;16.50;99.90;;;;;;5043256;28;20473;-59
2022/09/22 11:57:37;;;;;;;3.95;1.60;;;16.50;99.90;;;;;;5037949;28;20051;-61
2022/09/22 12:00:16;;;;;;;4.50;1.45;;;16.50;99.90;;;;;;5043856;28;20087;-60
2022/09/22 12:02:53;;;;;;;3.47;1.38;;;16.40;99.90;;;;;;5040567;28;20131;-60
2022/09/22 12:05:30;;;;;;;3.72;1.15;;;16.40;99.90;;;;;;5035390;28;20126;-60
2022/09/22 12:08:04;;;;;;;3.05;1.27;;;16.40;99.90;;;;;;5048265;28;20533;-59
2022/09/22 12:10:39;;;;;;;3.72;1.23;;;16.50;99.90;;;;;;5038240;28;20108;-60
2022/09/22 12:13:15;;;;;;;2.78;0.93;;;16.50;99.90;;;;;;5035699;28;20151;-60
2022/09/22 12:16:02;;;;;;;2.28;1.20;;;16.50;99.90;;;;;;5034854;28;21431;-60
2022/09/22 12:18:45;;;;;;;2.85;1.13;;;16.40;99.90;;;;;;5038575;28;20429;-60
2022/09/22 12:21:35;;;;;;;2.45;1.38;;;16.40;99.90;;;;;;5043788;28;20036;-61
2022/09/22 12:24:10;;;;;;;1.58;1.08;;;16.60;99.90;;;;;;5043110;28;20748;-60
2022/09/22 12:26:38;;;;;;;2.47;1.30;;;16.50;99.90;;;;;;5042298;28;20032;-60
2022/09/22 12:29:10;;;;;;;2.10;1.42;;;16.40;99.90;;;;;;5041407;28;20553;-59
2022/09/22 12:31:40;;;;;;;1.90;1.20;;;16.50;99.90;;;;;;5044045;28;20036;-61
2022/09/22 12:34:14;;;;;;;2.78;1.20;;;16.50;99.90;;;;;;5043968;28;20124;-58
2022/09/22 12:36:41;;;;;;;4.40;1.20;;;16.70;99.90;;;;;;5048928;28;20366;-57
2022/09/22 12:39:20;;;;;;;2.67;1.40;;;16.60;99.90;;;;;;5044284;28;20083;-58
2022/09/22 12:42:05;;;;;;;3.40;1.35;;;16.60;99.90;;;;;;5043551;28;20033;-58
2022/09/22 12:44:37;;;;;;;4.35;1.35;;;16.50;99.90;;;;;;5044808;28;20411;-58
2022/09/22 12:47:14;;;;;;;2.42;1.38;;;16.50;99.90;;;;;;5046991;28;20083;-58
2022/09/22 12:49:48;;;;;;;2.55;1.40;;;16.50;99.90;;;;;;5044275;28;20131;-58
2022/09/22 12:52:35;;;;;;;1.73;1.17;;;16.50;99.90;;;;;;5046801;28;20113;-58
2022/09/22 12:55:27;;;;;;;3.53;1.23;;;16.60;99.90;;;;;;5049109;28;20043;-58
2022/09/22 12:57:58;;;;;;;1.17;0.80;;;16.70;99.90;;;;;;5041882;28;20124;-58
2022/09/22 13:00:35;;;;;;;2.90;1.10;;;16.80;99.90;;;;;;5046003;28;20025;-58
2022/09/22 13:03:26;;;;;;;3.38;1.40;;;16.70;99.90;;;;;;5046035;28;20063;-58
2022/09/22 13:05:56;;;;;;;4.35;1.00;;;16.70;99.90;;;;;;5044685;28;20070;-58
2022/09/22 13:08:47;;;;;;;2.47;1.20;;;16.70;99.90;;;;;;5046008;28;20064;-59
2022/09/22 13:11:14;;;;;;;1.92;1.40;;;16.70;99.90;;;;;;5041301;28;20076;-58
2022/09/22 13:13:46;;;;;;;2.40;1.30;;;16.70;99.90;;;;;;5041945;28;20693;-58
2022/09/22 13:16:15;;;;;;;3.20;1.70;;;16.80;99.90;;;;;;5048739;28;20072;-58
2022/09/22 13:18:57;;;;;;;2.67;2.00;;;16.70;99.90;;;;;;5042143;28;20041;-58
2022/09/22 13:21:32;;;;;;;2.75;1.52;;;16.70;99.90;;;;;;5040103;28;20470;-58
2022/09/22 13:24:03;;;;;;;3.38;1.90;;;16.70;99.90;;;;;;5039258;28;20041;-57
2022/09/22 13:26:39;;;;;;;3.92;1.60;;;16.70;99.90;;;;;;5041550;28;20463;-58
2022/09/22 13:29:19;;;;;;;4.63;1.70;;;16.60;99.90;;;;;;5038570;28;20029;-58